Flight Track Log - Related Links

Times and Time Zones

All times are in EDT time to prevent confusion due to time zone crossing. See the JIA2329 flight status page for this flight to view local times or setup timezone preferences in your user account.

Time Position Orientation Groundspeed Altitude Reporting Facility
EDT Latitude Longitude Course Direction KTS MPH feet Rate Location/Type
Sat 05:42:20 AM 42.7672 -73.8061 220° Southwest 149 171 1,200  Level Boston Center
Sat 05:43:02 AM 42.7919 -73.8322 322° Northwest 174 200 2,400 2,302 Climbing Boston Center
Sat 05:43:46 AM 42.8164 -73.8922 299° West 212 244 4,500 2,514 Climbing Boston Center
Sat 05:44:00 AM 42.7333 -74.1436 270° West  Level FlightAware Approximate
Sat 05:44:47 AM 42.8319 -73.9661 286° West 219 252 6,800  Level Boston Center
Sat 05:45:00 AM 42.7334 -74.2581 270° West  Level FlightAware Approximate
Sat 05:45:48 AM 42.8244 -74.0678 264° West 241 277 9,200  Level Boston Center
Sat 05:46:00 AM 42.6984 -74.3539 220° Southwest  Level FlightAware Approximate
Sat 05:46:47 AM 42.7878 -74.1461 237° Southwest 264 304 10,700  Level Boston Center
Sat 05:47:00 AM 42.6336 -74.4269 220° Southwest  Level FlightAware Approximate
Sat 05:47:46 AM 42.7261 -74.2319 226° Southwest 284 327 13,300  Level Boston Center
Sat 05:48:49 AM 42.6747 -74.3011 225° Southwest 290 334 15,100 1,350 Climbing Boston Center
Sat 05:49:46 AM 42.6089 -74.3867 224° Southwest 302 348 16,000 458 Climbing Boston Center
Sat 05:50:47 AM 42.5533 -74.4611 225° Southwest 309 356 16,000  Level Boston Center
Sat 05:51:47 AM 42.4892 -74.5461 224° Southwest 303 349 16,000  Level Boston Center
Sat 05:52:46 AM 42.4336 -74.6203 225° Southwest 303 349 16,000  Level Boston Center
Sat 05:54:20 AM 42.3461 -74.7381 225° Southwest 304 350 16,000  Level New York Center
Sat 05:55:19 AM 42.2853 -74.8156 223° Southwest 304 350 16,000  Level New York Center
Sat 05:56:18 AM 42.2244 -74.8958 224° Southwest 304 350 16,000  Level New York Center
Sat 05:57:18 AM 42.1506 -74.9833 221° Southwest 309 356 16,000  Level New York Center
Sat 05:58:18 AM 42.0733 -75.0483 212° Southwest 327 376 16,000  Level New York Center
Sat 05:59:18 AM 41.9961 -75.1103 211° Southwest 332 382 16,000  Level New York Center
Sat 06:00:19 AM 41.9253 -75.1669 211° Southwest 337 388 16,000  Level New York Center
Sat 06:01:18 AM 41.8478 -75.2314 212° Southwest 337 388 16,000 -350 Level New York Center
Sat 06:02:19 AM 41.7775 -75.3297 226° Southwest 326 375 15,300 -689 Descending New York Center
Sat 06:03:20 AM 41.7264 -75.4150 231° Southwest 312 359 14,600 -756 Descending New York Center
Sat 06:04:18 AM 41.6792 -75.5006 234° Southwest 300 345 13,800 -750 Descending New York Center
Sat 06:05:20 AM 41.6092 -75.5344 200° South 290 334 13,100 -878 Descending New York Center
Sat 06:06:21 AM 41.5136 -75.5803 200° South 323 372 12,000 -559 Descending New York Center
Sat 06:07:18 AM 41.4308 -75.6186 199° South 331 381 12,000  Level New York Center
Sat 06:08:18 AM 41.3417 -75.6592 199° South 331 381 12,000  Level New York Center
Sat 06:09:19 AM 41.2572 -75.6892 195° South 325 374 12,000  Level New York Center
Sat 06:10:20 AM 41.1758 -75.6886 180° South 320 368 12,000  Level New York Center
Sat 06:11:21 AM 41.0883 -75.6878 180° South 320 368 12,000  Level New York Center
Sat 06:12:18 AM 41.0011 -75.6869 180° South 320 368 12,000  Level New York Center
Sat 06:13:18 AM 40.9008 -75.6881 180° South 320 368 12,000  Level New York Center
Sat 06:14:19 AM 40.8133 -75.6872 180° South 320 368 12,000  Level New York Center
Sat 06:15:19 AM 40.7342 -75.6869 180° South 325 374 12,000  Level New York Center
Sat 06:16:19 AM 40.6425 -75.6858 179° South 325 374 12,000 -250 Level New York Center
Sat 06:17:19 AM 40.5572 -75.6333 155° Southeast 312 359 11,500 -750 Descending New York Center
Sat 06:18:19 AM 40.5050 -75.5339 125° Southeast 302 348 10,500 -744 Descending New York Center
Sat 06:19:20 AM 40.4586 -75.4464 125° Southeast 321 369 10,000 -252 Descending New York Center
Sat 06:20:18 AM 40.3906 -75.3708 140° Southeast 323 372 10,000  Level New York Center
Sat 06:21:18 AM 40.3050 -75.3242 157° South 306 352 10,000  Level New York Center
Sat 06:22:20 AM 40.2336 -75.2842 157° South 293 337 10,000  Level New York Center
Sat 06:23:20 AM 40.1664 -75.2444 156° South 288 331 10,000 -807 Level New York Center
Sat 06:24:19 AM 40.1044 -75.1700 137° Southeast 278 320 8,400 -1,714 Descending New York Center
Sat 06:25:19 AM 40.0478 -75.1231 148° Southeast 270 311 6,600 -2,350 Descending New York Center
Sat 06:26:19 AM 39.9694 -75.0992 167° South 262 302 3,700 -2,231 Descending New York Center
Sat 06:27:20 AM 39.9144 -75.0686 157° South 250 288 2,100 -800 Descending New York Center
Sat 06:28:19 AM 39.8864 -75.0914 212° Southwest 163 188 2,100 -305 Level New York Center
Sat 06:29:18 AM 39.8911 -75.1350 278° West 109 125 1,500 -718 Descending New York Center
Sat 06:30:41 AM 39.8833 -75.2000 261° West 135 155 400 -795 Descending Philadelphia TRACON

Login

Don't have an account? Register now (free) for customized features, flight alerts, and more!